Time;durP1;ratioP1;P1;durP2;ratioP2;P2;SDS_P1;SDS_P2;PMS_P1;PMS_P2;Temp;Humidity;BMP_temperature;BMP_pressure;BME280_temperature;BME280_humidity;BME280_pressure;Samples;Min_cycle;Max_cycle;Signal;HPM_P1;HPM_P2
2021/04/20 00:01:07;;;;;;;4.57;1.70;;;;;;;;;;5093385;28;20099;-18
2021/04/20 00:03:34;;;;;;;3.40;2.03;;;;;;;;;;5093604;28;20028;-18
2021/04/20 00:05:59;;;;;;;3.10;1.70;;;;;;;;;;5109030;28;20028;-17
2021/04/20 00:08:25;;;;;;;2.53;1.83;;;;;;;;;;5092832;28;20040;-17
2021/04/20 00:10:50;;;;;;;1.95;1.30;;;;;;;;;;5093612;28;20024;-17
2021/04/20 00:13:16;;;;;;;2.53;1.33;;;;;;;;;;5093467;28;20029;-17
2021/04/20 00:15:41;;;;;;;3.40;1.63;;;;;;;;;;5092021;28;20097;-17
2021/04/20 00:18:07;;;;;;;1.95;1.20;;;;;;;;;;5093215;28;20121;-17
2021/04/20 00:20:33;;;;;;;1.85;1.42;;;;;;;;;;5093244;28;20029;-17
2021/04/20 00:22:59;;;;;;;2.65;1.40;;;;;;;;;;5093306;28;20036;-17
2021/04/20 00:25:24;;;;;;;2.40;1.20;;;;;;;;;;5108792;28;20513;-18
2021/04/20 00:27:50;;;;;;;1.48;1.23;;;;;;;;;;5092945;28;20119;-18
2021/04/20 00:30:15;;;;;;;1.88;1.10;;;;;;;;;;5108706;28;20032;-17
2021/04/20 00:32:41;;;;;;;2.67;1.15;;;;;;;;;;5093051;28;20127;-18
2021/04/20 00:35:07;;;;;;;1.48;1.38;;;;;;;;;;5093239;28;20073;-17
2021/04/20 00:37:33;;;;;;;2.60;1.42;;;;;;;;;;5108587;28;20028;-17
2021/04/20 00:39:58;;;;;;;1.33;1.00;;;;;;;;;;5091510;28;20387;-18
2021/04/20 00:42:24;;;;;;;1.65;1.30;;;;;;;;;;5091709;28;20036;-18
2021/04/20 00:44:49;;;;;;;2.05;1.15;;;;;;;;;;5092853;28;20070;-18
2021/04/20 00:47:15;;;;;;;2.50;1.67;;;;;;;;;;5092939;28;20055;-17
2021/04/20 00:49:40;;;;;;;1.88;1.15;;;;;;;;;;5093131;28;20047;-17
2021/04/20 00:52:06;;;;;;;1.98;1.10;;;;;;;;;;5092531;28;20383;-18
2021/04/20 00:54:32;;;;;;;3.58;1.55;;;;;;;;;;5091438;28;20024;-18
2021/04/20 00:56:58;;;;;;;2.53;1.60;;;;;;;;;;5092898;28;20464;-18
2021/04/20 00:59:23;;;;;;;3.25;1.52;;;;;;;;;;5092842;28;20355;-18
2021/04/20 01:01:50;;;;;;;2.78;1.45;;;;;;;;;;5092684;28;20028;-18
2021/04/20 01:04:16;;;;;;;1.85;1.33;;;;;;;;;;5092827;28;20099;-17
2021/04/20 01:06:43;;;;;;;2.28;1.48;;;;;;;;;;5092479;28;20031;-17
2021/04/20 01:09:09;;;;;;;2.63;1.65;;;;;;;;;;5091133;28;20032;-17
2021/04/20 01:11:35;;;;;;;1.90;1.23;;;;;;;;;;5092413;28;20035;-17
2021/04/20 01:14:01;;;;;;;1.88;1.30;;;;;;;;;;5092684;28;20027;-17
2021/04/20 01:16:26;;;;;;;2.47;1.10;;;;;;;;;;5092437;28;20099;-17
2021/04/20 01:18:52;;;;;;;1.33;1.23;;;;;;;;;;5093023;28;20099;-17
2021/04/20 01:21:17;;;;;;;1.15;0.95;;;;;;;;;;5096838;28;20108;-17
2021/04/20 01:23:58;;;;;;;1.60;1.30;;;;;;;;;;5095212;28;20044;-18
2021/04/20 01:26:25;;;;;;;2.22;1.40;;;;;;;;;;5096886;28;20374;-18
2021/04/20 01:28:50;;;;;;;2.60;2.00;;;;;;;;;;5096416;28;20518;-17
2021/04/20 01:31:16;;;;;;;1.67;1.20;;;;;;;;;;5096561;28;20028;-18
2021/04/20 01:33:42;;;;;;;3.53;1.50;;;;;;;;;;5096679;28;20103;-17
2021/04/20 01:36:10;;;;;;;1.60;1.20;;;;;;;;;;5096337;28;20028;-18
2021/04/20 01:38:35;;;;;;;2.95;1.40;;;;;;;;;;5096416;28;20103;-18
2021/04/20 01:41:01;;;;;;;5.80;1.48;;;;;;;;;;5096159;28;20051;-20
2021/04/20 01:43:26;;;;;;;2.28;2.03;;;;;;;;;;5096412;28;20020;-18
2021/04/20 01:45:52;;;;;;;1.88;1.30;;;;;;;;;;5096172;28;20024;-18
2021/04/20 01:48:17;;;;;;;4.95;1.33;;;;;;;;;;5094829;28;20081;-18
2021/04/20 01:50:43;;;;;;;1.17;1.08;;;;;;;;;;5096233;28;20028;-18
2021/04/20 01:53:09;;;;;;;2.17;1.05;;;;;;;;;;5096229;28;20028;-18
2021/04/20 01:55:37;;;;;;;2.50;1.35;;;;;;;;;;5096002;28;20129;-18
2021/04/20 01:58:03;;;;;;;1.90;1.20;;;;;;;;;;5095846;28;20460;-18
2021/04/20 02:00:29;;;;;;;2.13;1.17;;;;;;;;;;5096009;28;20024;-18
2021/04/20 02:02:54;;;;;;;2.20;1.15;;;;;;;;;;5094508;28;20031;-18
2021/04/20 02:05:21;;;;;;;2.08;0.90;;;;;;;;;;5095838;28;20016;-18
2021/04/20 02:07:46;;;;;;;1.48;1.08;;;;;;;;;;5094464;28;20563;-18
2021/04/20 02:10:13;;;;;;;1.85;1.30;;;;;;;;;;5095691;28;20028;-17
2021/04/20 02:12:39;;;;;;;1.50;1.27;;;;;;;;;;5095797;28;20032;-18
2021/04/20 02:15:06;;;;;;;2.67;1.25;;;;;;;;;;5095666;28;20031;-18
2021/04/20 02:17:31;;;;;;;1.35;1.20;;;;;;;;;;5095483;28;20016;-18
2021/04/20 02:19:57;;;;;;;1.30;1.10;;;;;;;;;;5095561;28;20028;-18
2021/04/20 02:22:23;;;;;;;2.08;1.40;;;;;;;;;;5094905;28;20070;-18
2021/04/20 02:24:48;;;;;;;3.70;2.25;;;;;;;;;;5095320;28;20486;-18
2021/04/20 02:27:14;;;;;;;1.52;1.38;;;;;;;;;;5095454;28;20024;-18
2021/04/20 02:29:39;;;;;;;1.95;1.40;;;;;;;;;;5094851;28;20081;-18
2021/04/20 02:32:05;;;;;;;6.20;2.20;;;;;;;;;;5093961;28;20062;-18
2021/04/20 02:34:30;;;;;;;3.40;1.50;;;;;;;;;;5095375;28;20382;-19
2021/04/20 02:36:56;;;;;;;1.98;1.42;;;;;;;;;;5094673;28;20367;-18
2021/04/20 02:39:22;;;;;;;2.25;1.40;;;;;;;;;;5095433;28;20062;-18
2021/04/20 02:41:48;;;;;;;1.92;1.40;;;;;;;;;;5095211;28;20095;-17
2021/04/20 02:44:14;;;;;;;2.35;1.25;;;;;;;;;;5094989;28;20103;-18
2021/04/20 02:46:40;;;;;;;2.03;1.02;;;;;;;;;;5095062;28;20047;-18
2021/04/20 02:49:07;;;;;;;1.33;1.23;;;;;;;;;;5094905;28;20036;-18
2021/04/20 02:51:36;;;;;;;1.35;1.25;;;;;;;;;;5110953;28;20026;-18
2021/04/20 02:54:02;;;;;;;1.45;1.10;;;;;;;;;;5094848;28;20020;-18
2021/04/20 02:56:28;;;;;;;3.08;1.45;;;;;;;;;;5094857;28;20528;-18
2021/04/20 02:58:54;;;;;;;2.42;1.45;;;;;;;;;;5094992;28;20028;-18
2021/04/20 03:01:27;;;;;;;2.38;1.48;;;;;;;;;;5094801;28;20554;-18
2021/04/20 03:03:53;;;;;;;1.40;1.10;;;;;;;;;;5095022;28;20028;-18
2021/04/20 03:06:20;;;;;;;1.60;0.85;;;;;;;;;;5094627;28;20505;-18
2021/04/20 03:08:45;;;;;;;4.38;1.40;;;;;;;;;;5094540;28;20557;-18
2021/04/20 03:11:16;;;;;;;1.65;1.08;;;;;;;;;;5094517;28;20020;-17
2021/04/20 03:13:45;;;;;;;2.03;1.40;;;;;;;;;;5094469;28;20386;-18
2021/04/20 03:16:12;;;;;;;1.73;0.88;;;;;;;;;;5094525;28;20028;-18
2021/04/20 03:18:38;;;;;;;2.15;1.25;;;;;;;;;;5094493;28;20043;-18
2021/04/20 03:21:08;;;;;;;1.20;1.10;;;;;;;;;;5094310;28;20013;-18
2021/04/20 03:23:33;;;;;;;2.55;1.30;;;;;;;;;;5094250;28;20057;-18
2021/04/20 03:25:59;;;;;;;3.97;1.50;;;;;;;;;;5094225;28;20020;-17
2021/04/20 03:28:24;;;;;;;2.00;1.35;;;;;;;;;;5094089;28;20047;-18
2021/04/20 03:30:51;;;;;;;1.70;1.15;;;;;;;;;;5092935;28;20013;-18
2021/04/20 03:33:23;;;;;;;1.85;1.60;;;;;;;;;;5094144;28;20028;-18
2021/04/20 03:35:51;;;;;;;2.22;1.48;;;;;;;;;;5094055;28;20077;-18
2021/04/20 03:38:55;;;;;;;2.03;1.42;;;;;;;;;;5094029;28;20486;-18
2021/04/20 03:41:22;;;;;;;1.48;1.38;;;;;;;;;;5070518;28;20032;-18
2021/04/20 03:43:49;;;;;;;2.03;1.40;;;;;;;;;;5054653;28;20020;-18
2021/04/20 03:46:22;;;;;;;2.10;0.95;;;;;;;;;;5081895;28;20032;-18
2021/04/20 03:48:59;;;;;;;4.90;1.27;;;;;;;;;;5093871;28;20111;-18
2021/04/20 03:51:26;;;;;;;1.35;1.15;;;;;;;;;;5093799;28;20123;-18
2021/04/20 03:53:53;;;;;;;2.25;1.30;;;;;;;;;;5094078;28;20039;-17
2021/04/20 03:56:23;;;;;;;2.13;1.40;;;;;;;;;;5093639;28;20035;-18
2021/04/20 03:58:49;;;;;;;2.83;1.55;;;;;;;;;;5094064;28;20735;-17
2021/04/20 04:01:15;;;;;;;8.93;1.42;;;;;;;;;;5093576;28;20506;-17
2021/04/20 04:03:43;;;;;;;1.70;1.35;;;;;;;;;;5093540;28;20016;-18
2021/04/20 04:06:09;;;;;;;2.05;1.50;;;;;;;;;;5093421;28;20028;-18
2021/04/20 04:08:39;;;;;;;1.58;0.95;;;;;;;;;;5093679;28;20054;-18
2021/04/20 04:11:05;;;;;;;1.55;1.33;;;;;;;;;;5093308;28;20031;-18
2021/04/20 04:13:32;;;;;;;1.90;1.50;;;;;;;;;;5093408;28;20033;-18
2021/04/20 04:16:01;;;;;;;1.35;0.88;;;;;;;;;;5093291;28;20032;-17
2021/04/20 04:18:29;;;;;;;1.42;1.10;;;;;;;;;;5093155;28;20089;-17
2021/04/20 04:20:55;;;;;;;1.60;1.13;;;;;;;;;;5093225;28;20490;-17
2021/04/20 04:23:23;;;;;;;2.10;1.48;;;;;;;;;;5093153;28;20066;-17
2021/04/20 04:25:50;;;;;;;2.35;1.45;;;;;;;;;;5093064;28;20036;-16
2021/04/20 04:28:16;;;;;;;2.03;1.20;;;;;;;;;;5093040;28;20051;-17
2021/04/20 04:30:44;;;;;;;1.48;1.15;;;;;;;;;;5093269;28;20120;-17
2021/04/20 04:33:11;;;;;;;1.30;1.17;;;;;;;;;;5092906;28;20049;-17
2021/04/20 04:35:38;;;;;;;1.85;1.30;;;;;;;;;;5092991;28;20036;-17
2021/04/20 04:38:04;;;;;;;1.95;1.42;;;;;;;;;;5092893;28;20008;-17
2021/04/20 04:40:32;;;;;;;1.10;0.88;;;;;;;;;;5093137;28;20058;-17
2021/04/20 04:42:59;;;;;;;1.52;1.10;;;;;;;;;;5092896;28;20074;-26
2021/04/20 04:45:25;;;;;;;2.05;1.23;;;;;;;;;;5108502;28;20054;-17
2021/04/20 04:47:50;;;;;;;1.60;1.25;;;;;;;;;;5092791;28;20055;-17
2021/04/20 04:50:15;;;;;;;1.95;1.33;;;;;;;;;;5092988;28;20119;-16
2021/04/20 04:52:41;;;;;;;2.08;1.23;;;;;;;;;;5092608;28;20087;-17
2021/04/20 04:55:07;;;;;;;1.55;1.38;;;;;;;;;;5092917;28;20028;-17
2021/04/20 04:57:33;;;;;;;1.90;1.48;;;;;;;;;;5092971;28;20020;-17
2021/04/20 04:59:59;;;;;;;5.63;2.13;;;;;;;;;;5092856;28;20113;-16
2021/04/20 05:02:25;;;;;;;5.15;2.50;;;;;;;;;;5091378;28;20527;-17
2021/04/20 05:04:50;;;;;;;3.67;1.83;;;;;;;;;;5091314;28;20028;-16
2021/04/20 05:07:20;;;;;;;7.20;1.75;;;;;;;;;;5092588;28;20017;-17
2021/04/20 05:09:45;;;;;;;3.85;2.40;;;;;;;;;;5092884;28;20036;-16
2021/04/20 05:12:11;;;;;;;4.57;2.38;;;;;;;;;;5092524;28;20016;-17
2021/04/20 05:14:36;;;;;;;2.25;1.42;;;;;;;;;;5108095;28;20028;-16
2021/04/20 05:17:04;;;;;;;3.50;2.47;;;;;;;;;;5092398;28;20016;-17
2021/04/20 05:19:30;;;;;;;3.35;1.65;;;;;;;;;;5092723;28;20070;-16
2021/04/20 05:21:56;;;;;;;2.42;1.55;;;;;;;;;;5092636;28;20028;-17
2021/04/20 05:24:22;;;;;;;1.73;1.10;;;;;;;;;;5092340;28;20036;-17
2021/04/20 05:26:48;;;;;;;2.80;1.10;;;;;;;;;;5092365;28;20062;-17
2021/04/20 05:29:13;;;;;;;1.60;1.23;;;;;;;;;;5092148;28;20425;-16
2021/04/20 05:31:39;;;;;;;1.85;1.45;;;;;;;;;;5092658;28;20039;-17
2021/04/20 05:34:05;;;;;;;3.13;1.67;;;;;;;;;;5092549;28;20386;-17
2021/04/20 05:36:31;;;;;;;3.00;2.03;;;;;;;;;;5092159;28;20058;-19
2021/04/20 05:38:58;;;;;;;2.00;1.60;;;;;;;;;;5092227;28;20063;-19
2021/04/20 05:41:33;;;;;;;2.20;1.50;;;;;;;;;;5092302;28;20027;-19
2021/04/20 05:43:59;;;;;;;3.45;1.75;;;;;;;;;;5092419;28;20055;-19
2021/04/20 05:46:25;;;;;;;3.72;1.63;;;;;;;;;;5092205;28;20016;-17
2021/04/20 05:48:52;;;;;;;2.40;1.70;;;;;;;;;;5092399;28;20032;-17
2021/04/20 05:51:18;;;;;;;3.03;1.73;;;;;;;;;;5107801;28;20375;-17
2021/04/20 05:53:47;;;;;;;3.90;1.58;;;;;;;;;;5092164;28;20032;-17
2021/04/20 05:56:13;;;;;;;2.25;1.48;;;;;;;;;;5091968;28;20114;-17
2021/04/20 05:58:39;;;;;;;3.03;1.33;;;;;;;;;;5092153;28;20123;-17
2021/04/20 06:01:05;;;;;;;2.55;1.55;;;;;;;;;;5092074;28;20092;-17
2021/04/20 06:03:34;;;;;;;1.77;1.65;;;;;;;;;;5090706;28;20027;-17
2021/04/20 06:06:01;;;;;;;2.60;1.60;;;;;;;;;;5092968;28;20485;-17
2021/04/20 06:08:28;;;;;;;5.03;1.52;;;;;;;;;;5096050;28;20044;-17
2021/04/20 06:10:54;;;;;;;1.40;1.05;;;;;;;;;;5095762;28;20054;-18
2021/04/20 06:13:20;;;;;;;2.08;1.33;;;;;;;;;;5094442;28;20059;-17
2021/04/20 06:15:45;;;;;;;1.90;1.40;;;;;;;;;;5095692;28;20020;-17
2021/04/20 06:18:10;;;;;;;2.35;1.70;;;;;;;;;;5095527;28;20097;-17
2021/04/20 06:20:36;;;;;;;1.90;1.40;;;;;;;;;;5095675;28;20099;-17
2021/04/20 06:23:02;;;;;;;2.40;2.08;;;;;;;;;;5095462;28;20034;-17
2021/04/20 06:25:29;;;;;;;2.80;2.22;;;;;;;;;;5095261;28;20048;-17
2021/04/20 06:27:54;;;;;;;2.90;1.90;;;;;;;;;;5095375;28;20020;-18
2021/04/20 06:30:20;;;;;;;1.88;1.63;;;;;;;;;;5095358;28;20028;-17
2021/04/20 06:32:46;;;;;;;1.80;1.52;;;;;;;;;;5095408;28;20032;-17
2021/04/20 06:35:15;;;;;;;2.05;1.30;;;;;;;;;;5095277;28;20023;-17
2021/04/20 06:37:42;;;;;;;3.25;1.70;;;;;;;;;;5095277;28;20039;-17
2021/04/20 06:40:10;;;;;;;2.85;1.60;;;;;;;;;;5095094;28;20490;-17
2021/04/20 06:42:41;;;;;;;3.22;1.40;;;;;;;;;;5093943;28;20032;-18
2021/04/20 06:45:09;;;;;;;3.47;2.92;;;;;;;;;;5110815;28;20024;-18
2021/04/20 06:47:53;;;;;;;6.05;3.10;;;;;;;;;;5110733;28;20360;-17
2021/04/20 06:50:20;;;;;;;4.20;3.00;;;;;;;;;;5095201;28;20063;-18
2021/04/20 06:52:59;;;;;;;3.03;2.72;;;;;;;;;;5095136;28;20528;-17
2021/04/20 06:55:36;;;;;;;3.85;2.17;;;;;;;;;;5094858;28;20055;-17
2021/04/20 06:58:09;;;;;;;3.13;2.25;;;;;;;;;;5094846;28;20505;-17
2021/04/20 07:00:42;;;;;;;1.92;1.70;;;;;;;;;;5093643;28;20024;-17
2021/04/20 07:03:15;;;;;;;1.98;1.60;;;;;;;;;;5095076;28;20144;-17
2021/04/20 07:05:55;;;;;;;1.35;1.05;;;;;;;;;;5094716;28;20024;-17
2021/04/20 07:08:39;;;;;;;1.73;1.20;;;;;;;;;;5094496;28;20044;-18
2021/04/20 07:11:08;;;;;;;1.63;1.23;;;;;;;;;;5094653;28;20039;-17
2021/04/20 07:13:35;;;;;;;2.35;1.42;;;;;;;;;;5094336;28;20466;-18
2021/04/20 07:16:03;;;;;;;2.00;1.58;;;;;;;;;;5093801;28;20569;-17
2021/04/20 07:18:29;;;;;;;3.88;2.60;;;;;;;;;;5094164;28;20099;-23
2021/04/20 07:20:54;;;;;;;6.72;4.45;;;;;;;;;;5094809;28;20438;-17
2021/04/20 07:23:35;;;;;;;3.97;2.70;;;;;;;;;;5094170;28;20015;-17
2021/04/20 07:26:07;;;;;;;4.93;3.00;;;;;;;;;;5092949;28;20039;-17
2021/04/20 07:28:44;;;;;;;2.83;2.28;;;;;;;;;;5094213;28;20506;-17
2021/04/20 07:31:28;;;;;;;3.45;1.90;;;;;;;;;;5094415;28;20073;-17
2021/04/20 07:34:29;;;;;;;2.60;2.00;;;;;;;;;;5094488;28;20375;-18
2021/04/20 07:36:57;;;;;;;1.95;1.42;;;;;;;;;;5071420;28;20035;-17
2021/04/20 07:39:24;;;;;;;1.38;1.20;;;;;;;;;;5089936;28;20036;-17
2021/04/20 07:41:58;;;;;;;2.88;1.90;;;;;;;;;;4753339;28;9999770;-17
2021/04/20 07:44:30;;;;;;;1.40;1.25;;;;;;;;;;5090635;28;20036;-17
2021/04/20 07:46:58;;;;;;;2.83;1.95;;;;;;;;;;5090646;28;20027;-21
2021/04/20 07:49:29;;;;;;;2.30;1.83;;;;;;;;;;5090370;28;21811;-17
2021/04/20 07:52:07;;;;;;;1.75;1.60;;;;;;;;;;5089940;28;20839;-17
2021/04/20 07:54:36;;;;;;;2.47;1.95;;;;;;;;;;5089667;28;20028;-17
2021/04/20 07:57:24;;;;;;;2.42;1.58;;;;;;;;;;5089830;28;20053;-17
2021/04/20 07:59:53;;;;;;;2.72;1.60;;;;;;;;;;5090178;28;20057;-17
2021/04/20 08:02:27;;;;;;;2.30;1.73;;;;;;;;;;5089794;28;20016;-17
2021/04/20 08:04:59;;;;;;;2.63;1.92;;;;;;;;;;5089508;28;20428;-17
2021/04/20 08:07:32;;;;;;;2.45;2.03;;;;;;;;;;5089879;28;20020;-17
2021/04/20 08:09:58;;;;;;;;;;;;;;;;;;5089678;28;20048;-17
2021/04/20 08:12:26;;;;;;;3.30;1.88;;;;;;;;;;5089786;28;19957;-18
2021/04/20 08:14:58;;;;;;;2.85;2.00;;;;;;;;;;5088332;28;20495;-18
2021/04/20 08:17:27;;;;;;;3.00;2.03;;;;;;;;;;5104736;28;20032;-17
2021/04/20 08:19:55;;;;;;;3.72;2.40;;;;;;;;;;5089632;28;20429;-17
2021/04/20 08:22:20;;;;;;;3.85;2.42;;;;;;;;;;5088656;28;20104;-18
2021/04/20 08:24:52;;;;;;;3.65;2.05;;;;;;;;;;5089339;28;20075;-18
2021/04/20 08:27:36;;;;;;;4.57;2.20;;;;;;;;;;5089192;28;20016;-18
2021/04/20 08:30:05;;;;;;;3.08;1.83;;;;;;;;;;5088801;28;20047;-17
2021/04/20 08:32:32;;;;;;;4.90;2.08;;;;;;;;;;5089700;28;20051;-18
2021/04/20 08:35:07;;;;;;;4.80;2.70;;;;;;;;;;5089949;28;20032;-18
2021/04/20 08:37:46;;;;;;;3.92;1.92;;;;;;;;;;5088205;28;20028;-18
2021/04/20 08:40:21;;;;;;;3.22;1.80;;;;;;;;;;5087829;28;20028;-19
2021/04/20 08:43:16;;;;;;;2.65;1.55;;;;;;;;;;5087622;28;20118;-18
2021/04/20 08:45:43;;;;;;;4.18;2.55;;;;;;;;;;5079090;28;20083;-18
2021/04/20 08:48:12;;;;;;;4.53;2.40;;;;;;;;;;5088963;28;20043;-18
2021/04/20 08:50:39;;;;;;;2.65;1.58;;;;;;;;;;5088991;28;20074;-17
2021/04/20 08:53:11;;;;;;;3.38;2.25;;;;;;;;;;5088808;28;20008;-18
2021/04/20 08:55:36;;;;;;;2.60;1.88;;;;;;;;;;5088966;28;20024;-18
2021/04/20 08:58:24;;;;;;;3.97;1.60;;;;;;;;;;5089302;28;20027;-18
2021/04/20 09:01:02;;;;;;;9.85;3.00;;;;;;;;;;5104838;28;20071;-17
2021/04/20 09:03:46;;;;;;;4.00;3.10;;;;;;;;;;5089083;28;20039;-18
2021/04/20 09:06:19;;;;;;;2.70;1.98;;;;;;;;;;5088219;28;20382;-18
2021/04/20 09:08:47;;;;;;;4.53;2.97;;;;;;;;;;5088837;28;20700;-17
2021/04/20 09:11:23;;;;;;;2.67;2.08;;;;;;;;;;5088749;28;20031;-18
2021/04/20 09:14:01;;;;;;;3.65;2.70;;;;;;;;;;5088797;28;20039;-18
2021/04/20 09:16:48;;;;;;;2.85;1.85;;;;;;;;;;5104728;28;20028;-18
2021/04/20 09:19:34;;;;;;;2.22;1.23;;;;;;;;;;5104951;28;20024;-17
2021/04/20 09:22:09;;;;;;;3.50;1.88;;;;;;;;;;5088500;28;20094;-18
2021/04/20 09:24:40;;;;;;;4.10;2.38;;;;;;;;;;5088758;28;20108;-19
2021/04/20 09:27:23;;;;;;;5.65;4.07;;;;;;;;;;5088985;28;20028;-18
2021/04/20 09:29:49;;;;;;;4.80;3.05;;;;;;;;;;5086961;28;20048;-18
2021/04/20 09:32:18;;;;;;;3.40;1.95;;;;;;;;;;5089043;28;20455;-17
2021/04/20 09:34:44;;;;;;;7.57;3.20;;;;;;;;;;5088235;28;20085;-18
2021/04/20 09:37:10;;;;;;;4.07;2.92;;;;;;;;;;5103481;28;20040;-17
2021/04/20 09:39:37;;;;;;;3.13;2.50;;;;;;;;;;5089330;28;20068;-18
2021/04/20 09:42:04;;;;;;;2.83;1.40;;;;;;;;;;5092789;28;20066;-18
2021/04/20 09:44:31;;;;;;;4.30;2.40;;;;;;;;;;5093004;28;20032;-18
2021/04/20 09:47:23;;;;;;;3.72;2.38;;;;;;;;;;5092846;28;20055;-18
2021/04/20 09:49:56;;;;;;;4.15;1.60;;;;;;;;;;5084210;28;20610;-18
2021/04/20 09:52:25;;;;;;;4.65;2.78;;;;;;;;;;5092264;28;20399;-19
2021/04/20 09:55:09;;;;;;;3.72;2.55;;;;;;;;;;5092539;28;20467;-18
2021/04/20 09:57:37;;;;;;;3.38;2.35;;;;;;;;;;5092862;28;20039;-18
2021/04/20 10:00:05;;;;;;;3.55;1.63;;;;;;;;;;5092443;28;20030;-17
2021/04/20 10:02:42;;;;;;;6.78;2.28;;;;;;;;;;5092540;28;20082;-18
2021/04/20 10:05:08;;;;;;;3.65;2.50;;;;;;;;;;5091879;28;20526;-17
2021/04/20 10:07:52;;;;;;;3.42;2.35;;;;;;;;;;5090900;28;20016;-17
2021/04/20 10:10:17;;;;;;;3.45;2.03;;;;;;;;;;5091965;28;20032;-19
2021/04/20 10:13:01;;;;;;;4.68;2.55;;;;;;;;;;5091723;28;20022;-18
2021/04/20 10:15:42;;;;;;;3.88;2.63;;;;;;;;;;5092100;28;20102;-18
2021/04/20 10:18:23;;;;;;;3.05;2.13;;;;;;;;;;5091608;28;20070;-18
2021/04/20 10:21:07;;;;;;;3.08;1.95;;;;;;;;;;5091737;28;20558;-18
2021/04/20 10:23:42;;;;;;;4.90;2.28;;;;;;;;;;5091708;28;20036;-18
2021/04/20 10:26:17;;;;;;;5.05;2.67;;;;;;;;;;5091962;28;20470;-18
2021/04/20 10:28:50;;;;;;;4.47;2.88;;;;;;;;;;5091584;28;20203;-18
2021/04/20 10:31:23;;;;;;;4.07;2.75;;;;;;;;;;5091489;28;20050;-17
2021/04/20 10:33:51;;;;;;;3.47;2.67;;;;;;;;;;5090188;28;20498;-18
2021/04/20 10:36:20;;;;;;;2.85;2.10;;;;;;;;;;5090826;28;20012;-19
2021/04/20 10:38:46;;;;;;;4.57;1.85;;;;;;;;;;5107132;28;20390;-19
2021/04/20 10:41:26;;;;;;;3.13;2.67;;;;;;;;;;5091105;28;20016;-19
2021/04/20 10:43:52;;;;;;;4.55;2.25;;;;;;;;;;5086089;28;20051;-18
2021/04/20 10:46:24;;;;;;;3.72;2.10;;;;;;;;;;5091625;28;20069;-19
2021/04/20 10:48:50;;;;;;;2.28;1.52;;;;;;;;;;5107315;28;20044;-18
2021/04/20 10:51:16;;;;;;;7.15;1.98;;;;;;;;;;5090854;28;20091;-19
2021/04/20 10:53:45;;;;;;;3.83;2.20;;;;;;;;;;5090931;28;20431;-19
2021/04/20 10:56:12;;;;;;;3.25;2.30;;;;;;;;;;5090976;28;20031;-19
2021/04/20 10:58:43;;;;;;;4.15;2.33;;;;;;;;;;5090973;28;20032;-18
2021/04/20 11:01:12;;;;;;;4.40;3.22;;;;;;;;;;5090774;28;20028;-19
2021/04/20 11:03:39;;;;;;;4.32;3.00;;;;;;;;;;5091084;28;20032;-18
2021/04/20 11:06:06;;;;;;;5.32;2.83;;;;;;;;;;5090101;28;20024;-18
2021/04/20 11:08:36;;;;;;;6.80;2.05;;;;;;;;;;5091492;28;20757;-18
2021/04/20 11:11:02;;;;;;;3.88;2.38;;;;;;;;;;5090071;28;20031;-18
2021/04/20 11:13:37;;;;;;;3.88;2.28;;;;;;;;;;5091397;28;20069;-18
2021/04/20 11:16:08;;;;;;;3.33;2.25;;;;;;;;;;5090417;28;20028;-18
2021/04/20 11:18:39;;;;;;;3.88;2.25;;;;;;;;;;5090830;28;20032;-18
2021/04/20 11:21:09;;;;;;;3.90;2.22;;;;;;;;;;5091346;28;20032;-18
2021/04/20 11:23:42;;;;;;;8.80;3.45;;;;;;;;;;5090971;28;20020;-18
2021/04/20 11:26:10;;;;;;;4.10;2.72;;;;;;;;;;5089372;28;20455;-19
2021/04/20 11:28:42;;;;;;;4.28;2.80;;;;;;;;;;5090838;28;20028;-17
2021/04/20 11:31:28;;;;;;;6.60;2.57;;;;;;;;;;5090864;28;20482;-18
2021/04/20 11:34:12;;;;;;;3.85;2.65;;;;;;;;;;5086617;28;20127;-17
2021/04/20 11:36:47;;;;;;;3.75;2.53;;;;;;;;;;5090724;28;20482;-17
2021/04/20 11:39:17;;;;;;;4.70;2.45;;;;;;;;;;5090446;28;20059;-17
2021/04/20 11:41:45;;;;;;;3.42;2.20;;;;;;;;;;5090154;28;20037;-16
2021/04/20 11:44:12;;;;;;;6.70;2.78;;;;;;;;;;5090202;28;20028;-17
2021/04/20 11:46:40;;;;;;;5.70;4.25;;;;;;;;;;5090193;28;20684;-19
2021/04/20 11:49:21;;;;;;;6.35;3.03;;;;;;;;;;5090010;28;20040;-19
2021/04/20 11:51:46;;;;;;;6.15;3.22;;;;;;;;;;5090262;28;20031;-19
2021/04/20 11:54:19;;;;;;;3.17;2.03;;;;;;;;;;5089839;28;20478;-19
2021/04/20 11:56:45;;;;;;;3.50;1.92;;;;;;;;;;5090386;28;20051;-20
2021/04/20 11:59:10;;;;;;;0.45;0.45;;;;;;;;;;5090012;28;20125;-19
2021/04/20 12:01:36;;;;;;;3.67;1.80;;;;;;;;;;5088512;28;20059;-20
2021/04/20 12:04:03;;;;;;;5.68;3.35;;;;;;;;;;5089077;28;20016;-19
2021/04/20 12:06:41;;;;;;;4.90;2.85;;;;;;;;;;5089664;28;20039;-19
2021/04/20 12:09:07;;;;;;;5.28;2.15;;;;;;;;;;5089946;28;20047;-19
2021/04/20 12:11:33;;;;;;;2.53;2.13;;;;;;;;;;5090306;28;20024;-19
2021/04/20 12:13:59;;;;;;;2.90;1.65;;;;;;;;;;5090142;28;20547;-19
2021/04/20 12:16:30;;;;;;;5.57;2.88;;;;;;;;;;5090122;28;20378;-19
2021/04/20 12:18:56;;;;;;;3.97;1.88;;;;;;;;;;5088432;28;20489;-19
2021/04/20 12:21:25;;;;;;;3.65;2.10;;;;;;;;;;5089535;28;20024;-19
2021/04/20 12:23:57;;;;;;;3.78;1.15;;;;;;;;;;5089534;28;20036;-16
2021/04/20 12:26:25;;;;;;;1.52;0.77;;;;;;;;;;5089945;28;20391;-17
2021/04/20 12:28:52;;;;;;;4.20;1.48;;;;;;;;;;5089336;28;20032;-16
2021/04/20 12:31:26;;;;;;;1.65;1.48;;;;;;;;;;5089655;28;20027;-16
2021/04/20 12:33:52;;;;;;;1.30;1.00;;;;;;;;;;5089613;28;20055;-17
2021/04/20 12:36:28;;;;;;;1.63;1.27;;;;;;;;;;5089702;28;20117;-18
2021/04/20 12:38:55;;;;;;;2.90;1.70;;;;;;;;;;5089796;28;20036;-18
2021/04/20 12:41:20;;;;;;;7.60;3.67;;;;;;;;;;5089022;28;20016;-18
2021/04/20 12:43:48;;;;;;;4.15;2.67;;;;;;;;;;5089832;28;20039;-18
2021/04/20 12:46:14;;;;;;;4.88;2.70;;;;;;;;;;5089505;28;20016;-17
2021/04/20 12:48:43;;;;;;;6.00;3.78;;;;;;;;;;5089395;28;20044;-17
2021/04/20 12:51:18;;;;;;;8.77;3.53;;;;;;;;;;5089403;28;20024;-17
2021/04/20 12:53:45;;;;;;;3.55;2.40;;;;;;;;;;5089391;28;20031;-17
2021/04/20 12:56:11;;;;;;;5.18;2.85;;;;;;;;;;5088684;28;20051;-17
2021/04/20 12:58:39;;;;;;;5.65;2.67;;;;;;;;;;5089479;28;20032;-16
2021/04/20 13:01:05;;;;;;;3.53;2.13;;;;;;;;;;5089607;28;20024;-17
2021/04/20 13:03:32;;;;;;;5.53;2.33;;;;;;;;;;5089267;28;20028;-18
2021/04/20 13:05:59;;;;;;;4.18;2.35;;;;;;;;;;5089167;28;20019;-18
2021/04/20 13:08:27;;;;;;;3.95;2.55;;;;;;;;;;5089008;28;20060;-18
2021/04/20 13:10:57;;;;;;;3.15;2.15;;;;;;;;;;5089086;28;20012;-18
2021/04/20 13:13:24;;;;;;;3.88;2.20;;;;;;;;;;5088803;28;20032;-24
2021/04/20 13:15:50;;;;;;;3.38;2.20;;;;;;;;;;5088804;28;20042;-19
2021/04/20 13:18:22;;;;;;;4.22;2.80;;;;;;;;;;5088682;28;20143;-18
2021/04/20 13:20:48;;;;;;;4.53;3.30;;;;;;;;;;5089147;28;20028;-18
2021/04/20 13:23:20;;;;;;;7.25;3.90;;;;;;;;;;5089160;28;20103;-18
2021/04/20 13:25:50;;;;;;;13.10;3.80;;;;;;;;;;5089061;28;20043;-18
2021/04/20 13:28:23;;;;;;;7.45;5.70;;;;;;;;;;5088608;28;20044;-18
2021/04/20 13:30:50;;;;;;;8.43;4.93;;;;;;;;;;5088939;28;20036;-18
2021/04/20 13:33:16;;;;;;;3.65;2.03;;;;;;;;;;5088532;28;20425;-18
2021/04/20 13:35:42;;;;;;;2.20;1.58;;;;;;;;;;5089261;28;20032;-18
2021/04/20 13:38:08;;;;;;;5.95;3.60;;;;;;;;;;5088596;28;20584;-18
2021/04/20 13:40:33;;;;;;;5.05;2.17;;;;;;;;;;5088402;28;20028;-17
2021/04/20 13:43:00;;;;;;;5.05;3.17;;;;;;;;;;5088241;28;20069;-18
2021/04/20 13:45:29;;;;;;;4.75;2.58;;;;;;;;;;5087153;28;20028;-18
2021/04/20 13:47:55;;;;;;;7.10;3.47;;;;;;;;;;5088329;28;20101;-18
2021/04/20 13:50:25;;;;;;;5.63;3.60;;;;;;;;;;5088395;28;20043;-18
2021/04/20 13:52:52;;;;;;;4.25;2.25;;;;;;;;;;5086716;28;20110;-18
2021/04/20 13:55:22;;;;;;;6.70;3.92;;;;;;;;;;5088415;28;20035;-18
2021/04/20 13:57:52;;;;;;;6.57;3.75;;;;;;;;;;5088651;28;20356;-18
2021/04/20 14:00:21;;;;;;;3.50;2.20;;;;;;;;;;5088111;28;20028;-18
2021/04/20 14:02:52;;;;;;;7.55;4.38;;;;;;;;;;5088304;28;20073;-17
2021/04/20 14:05:19;;;;;;;9.30;4.53;;;;;;;;;;5087776;28;20024;-18
2021/04/20 14:07:46;;;;;;;11.40;4.95;;;;;;;;;;5088604;28;20026;-18
2021/04/20 14:10:17;;;;;;;9.02;3.83;;;;;;;;;;5088461;28;20115;-18
2021/04/20 14:12:50;;;;;;;8.27;5.07;;;;;;;;;;5088704;28;20031;-18
2021/04/20 14:15:16;;;;;;;;;;;;;;;;;;5088811;28;20024;-18
2021/04/20 14:17:43;;;;;;;8.55;4.30;;;;;;;;;;5087860;28;20003;-18
2021/04/20 14:20:09;;;;;;;8.05;5.45;;;;;;;;;;5087976;28;20572;-18
2021/04/20 14:22:35;;;;;;;7.82;4.47;;;;;;;;;;5088146;28;20055;-17
2021/04/20 14:25:02;;;;;;;7.53;4.93;;;;;;;;;;5088072;28;20087;-18
2021/04/20 14:27:29;;;;;;;6.47;4.25;;;;;;;;;;5090272;28;20024;-18
2021/04/20 14:29:55;;;;;;;8.05;4.70;;;;;;;;;;5091567;28;20036;-18
2021/04/20 14:32:21;;;;;;;8.18;5.05;;;;;;;;;;5091960;28;20058;-18
2021/04/20 14:34:51;;;;;;;8.95;4.97;;;;;;;;;;5091698;28;20035;-18
2021/04/20 14:37:19;;;;;;;5.53;3.83;;;;;;;;;;5091875;28;20066;-18
2021/04/20 14:39:45;;;;;;;4.05;2.72;;;;;;;;;;5091287;28;20475;-18
2021/04/20 14:42:12;;;;;;;3.33;2.25;;;;;;;;;;5091260;28;20115;-18
2021/04/20 14:44:39;;;;;;;4.03;2.20;;;;;;;;;;5091456;28;20103;-18
2021/04/20 14:47:06;;;;;;;4.57;2.30;;;;;;;;;;5090300;28;20046;-18
2021/04/20 14:49:32;;;;;;;4.20;2.22;;;;;;;;;;5091077;28;20814;-18
2021/04/20 14:52:03;;;;;;;5.60;3.30;;;;;;;;;;5091259;28;20028;-18
2021/04/20 14:54:30;;;;;;;6.93;3.63;;;;;;;;;;5091363;28;20498;-18